Log in  \/ 

Montgomery Operations

Montgomery Operations for Plus One Flyers is located at: Gibbs Flying Service, 3717 John J Montgomery Dr, San Diego, CA 92123

We have completed a remodel of the Plus One Flyers office space and now we have a computer room with 3 new computers, 2 new copier/ printers on line. We also have a classroom/ meeting room with no simulators, and the Elite and Redbird sims have moved to the old computer area. 

Come take a look, its really nice and very user friendly.

BE Safe

Dave Eby

Additional info
  • Operations Officer: Dave Eby
  • Phone Number: 619-279-7499
  • E-Mail: myfops@plusoneflyers.org

People in this conversation

  • Annette Goff

    Kind of miss that link to the NOAA three day weather history. Makes for better flight planning and is a good tool. Just a thought.

Leave your comments

0 Character restriction
Your text should be more than 10 characters
terms and condition.
Special Instructions


Montgomery Weather

[source: ADDS]
KMYF 180653Z AUTO 26003KT 10SM CLR 11/06 A3007 RMK AO2 RAE07 SLP179 P0000 T01110056 =
KNKX 180655Z 28003KT 10SM CLR 10/05 A3006 RMK AO2 SLP175 T01000050 =
TAF KNKX 1803/1903 27009KT 9999 VCSH SCT030 BKN035 BKN050 QNH3001INS TEMPO 1803/1809 6000 -SHRA BKN020 FM181030 VRB05KT 9999 VCSH SCT030 BKN050 QNH3005INS BECMG 1817/1819 27009KT 9999 NSW SCT050 QNH3014INS BECMG 1901/1903 30008KT 9999 BKN050 QNH3006INS T09/1812Z 18/1821Z =
SR / SS: 13:53 / 01:59 UTC ( 2018-03-18)

Montgomery Operations Map